sensor_id;sensor_type;location;lat;lon;timestamp;pressure;altitude;pressure_sealevel;temperature;humidity
77706;BME280;66874;45.274;5.880;2024-02-04T00:01:22;100464.94;;;3.20;69.11
77706;BME280;66874;45.274;5.880;2024-02-04T00:03:47;100460.53;;;3.17;69.28
77706;BME280;66874;45.274;5.880;2024-02-04T00:06:13;100465.72;;;3.17;69.22
77706;BME280;66874;45.274;5.880;2024-02-04T00:08:38;100467.41;;;3.15;69.39
77706;BME280;66874;45.274;5.880;2024-02-04T00:11:03;100468.19;;;3.14;69.45
77706;BME280;66874;45.274;5.880;2024-02-04T00:13:30;100464.69;;;3.12;69.60
77706;BME280;66874;45.274;5.880;2024-02-04T00:15:55;100471.41;;;3.07;69.58
77706;BME280;66874;45.274;5.880;2024-02-04T00:18:23;100473.13;;;3.07;69.68
77706;BME280;66874;45.274;5.880;2024-02-04T00:20:49;100475.69;;;3.07;69.75
77706;BME280;66874;45.274;5.880;2024-02-04T00:23:14;100473.84;;;3.03;69.95
77706;BME280;66874;45.274;5.880;2024-02-04T00:25:39;100474.56;;;2.99;69.82
77706;BME280;66874;45.274;5.880;2024-02-04T00:28:08;100471.00;;;2.95;69.65
77706;BME280;66874;45.274;5.880;2024-02-04T00:30:37;100475.28;;;2.94;69.70
77706;BME280;66874;45.274;5.880;2024-02-04T00:33:02;100479.63;;;2.96;69.92
77706;BME280;66874;45.274;5.880;2024-02-04T00:35:29;100468.22;;;2.89;70.16
77706;BME280;66874;45.274;5.880;2024-02-04T00:37:54;100482.66;;;2.84;70.09
77706;BME280;66874;45.274;5.880;2024-02-04T00:40:19;100480.91;;;2.83;70.45
77706;BME280;66874;45.274;5.880;2024-02-04T00:42:45;100481.75;;;2.82;70.45
77706;BME280;66874;45.274;5.880;2024-02-04T00:45:10;100481.59;;;2.77;70.56
77706;BME280;66874;45.274;5.880;2024-02-04T00:47:36;100483.19;;;2.74;70.67
77706;BME280;66874;45.274;5.880;2024-02-04T00:50:01;100476.22;;;2.71;70.69
77706;BME280;66874;45.274;5.880;2024-02-04T00:52:27;100471.91;;;2.72;70.74
77706;BME280;66874;45.274;5.880;2024-02-04T00:54:52;100472.75;;;2.71;70.96
77706;BME280;66874;45.274;5.880;2024-02-04T00:57:17;100463.91;;;2.64;70.73
77706;BME280;66874;45.274;5.880;2024-02-04T00:59:43;100463.78;;;2.61;71.21
77706;BME280;66874;45.274;5.880;2024-02-04T01:02:08;100463.63;;;2.56;71.09
77706;BME280;66874;45.274;5.880;2024-02-04T01:04:33;100465.28;;;2.54;71.28
77706;BME280;66874;45.274;5.880;2024-02-04T01:06:59;100466.22;;;2.56;71.17
77706;BME280;66874;45.274;5.880;2024-02-04T01:09:24;100466.31;;;2.59;71.20
77706;BME280;66874;45.274;5.880;2024-02-04T01:11:49;100455.28;;;2.63;71.10
77706;BME280;66874;45.274;5.880;2024-02-04T01:14:15;100467.44;;;2.66;71.18
77706;BME280;66874;45.274;5.880;2024-02-04T01:16:40;100468.31;;;2.66;71.21
77706;BME280;66874;45.274;5.880;2024-02-04T01:19:06;100468.91;;;2.59;71.05
77706;BME280;66874;45.274;5.880;2024-02-04T01:21:31;100462.63;;;2.53;71.18
77706;BME280;66874;45.274;5.880;2024-02-04T01:23:56;100465.91;;;2.47;71.11
77706;BME280;66874;45.274;5.880;2024-02-04T01:26:22;100466.59;;;2.43;71.28
77706;BME280;66874;45.274;5.880;2024-02-04T01:28:49;100469.03;;;2.38;71.20
77706;BME280;66874;45.274;5.880;2024-02-04T01:31:14;100462.91;;;2.36;71.34
77706;BME280;66874;45.274;5.880;2024-02-04T01:33:40;100466.44;;;2.38;71.44
77706;BME280;66874;45.274;5.880;2024-02-04T01:36:05;100466.44;;;2.38;71.51
77706;BME280;66874;45.274;5.880;2024-02-04T01:38:31;100470.66;;;2.36;71.53
77706;BME280;66874;45.274;5.880;2024-02-04T01:40:57;100472.31;;;2.34;71.55
77706;BME280;66874;45.274;5.880;2024-02-04T01:43:23;100474.00;;;2.34;71.60
77706;BME280;66874;45.274;5.880;2024-02-04T01:45:50;100468.81;;;2.32;71.70
77706;BME280;66874;45.274;5.880;2024-02-04T01:48:17;100474.78;;;2.31;71.84
77706;BME280;66874;45.274;5.880;2024-02-04T01:50:42;100477.31;;;2.30;71.68
77706;BME280;66874;45.274;5.880;2024-02-04T01:53:09;100475.66;;;2.32;71.79
77706;BME280;66874;45.274;5.880;2024-02-04T01:55:35;100487.75;;;2.33;71.82
77706;BME280;66874;45.274;5.880;2024-02-04T01:58:01;100483.41;;;2.32;71.91
77706;BME280;66874;45.274;5.880;2024-02-04T02:00:27;100483.41;;;2.32;72.00
77706;BME280;66874;45.274;5.880;2024-02-04T02:02:53;100492.00;;;2.31;71.81
77706;BME280;66874;45.274;5.880;2024-02-04T02:05:19;100485.13;;;2.31;71.83
77706;BME280;66874;45.274;5.880;2024-02-04T02:07:44;100482.59;;;2.33;71.99
77706;BME280;66874;45.274;5.880;2024-02-04T02:10:13;100490.56;;;2.39;71.79
77706;BME280;66874;45.274;5.880;2024-02-04T02:12:48;100486.31;;;2.41;71.91
77706;BME280;66874;45.274;5.880;2024-02-04T02:15:20;100484.56;;;2.40;72.05
77706;BME280;66874;45.274;5.880;2024-02-04T02:18:00;100482.91;;;2.42;72.02
77706;BME280;66874;45.274;5.880;2024-02-04T02:20:32;100479.44;;;2.41;72.48
77706;BME280;66874;45.274;5.880;2024-02-04T02:23:07;100478.81;;;2.47;72.30
77706;BME280;66874;45.274;5.880;2024-02-04T02:25:34;100479.00;;;2.53;72.25
77706;BME280;66874;45.274;5.880;2024-02-04T02:28:01;100487.03;;;2.61;72.30
77706;BME280;66874;45.274;5.880;2024-02-04T02:30:26;100479.50;;;2.67;72.37
77706;BME280;66874;45.274;5.880;2024-02-04T02:32:52;100479.66;;;2.72;72.49
77706;BME280;66874;45.274;5.880;2024-02-04T02:35:17;100481.63;;;2.79;72.49
77706;BME280;66874;45.274;5.880;2024-02-04T02:38:05;100468.94;;;2.85;72.52
77706;BME280;66874;45.274;5.880;2024-02-04T02:40:54;100478.59;;;2.90;72.54
77706;BME280;66874;45.274;5.880;2024-02-04T02:43:23;100472.72;;;2.94;72.66
77706;BME280;66874;45.274;5.880;2024-02-04T02:45:49;100471.94;;;2.97;72.63
77706;BME280;66874;45.274;5.880;2024-02-04T02:48:15;100470.34;;;3.01;72.86
77706;BME280;66874;45.274;5.880;2024-02-04T02:50:41;100469.53;;;3.03;72.94
77706;BME280;66874;45.274;5.880;2024-02-04T02:53:07;100460.97;;;3.04;72.86
77706;BME280;66874;45.274;5.880;2024-02-04T02:55:32;100459.38;;;3.08;73.12
77706;BME280;66874;45.274;5.880;2024-02-04T02:57:57;100452.59;;;3.11;73.22
77706;BME280;66874;45.274;5.880;2024-02-04T03:00:23;100450.19;;;3.17;73.34
77706;BME280;66874;45.274;5.880;2024-02-04T03:02:48;100452.03;;;3.20;73.13
77706;BME280;66874;45.274;5.880;2024-02-04T03:05:17;100441.78;;;3.23;73.22
77706;BME280;66874;45.274;5.880;2024-02-04T03:07:43;100443.53;;;3.24;73.32
77706;BME280;66874;45.274;5.880;2024-02-04T03:10:08;100440.06;;;3.24;73.50
77706;BME280;66874;45.274;5.880;2024-02-04T03:12:34;100441.84;;;3.26;73.75
77706;BME280;66874;45.274;5.880;2024-02-04T03:14:59;100448.84;;;3.29;73.97
77706;BME280;66874;45.274;5.880;2024-02-04T03:17:25;100445.50;;;3.31;74.27
77706;BME280;66874;45.274;5.880;2024-02-04T03:19:50;100452.44;;;3.34;74.18
77706;BME280;66874;45.274;5.880;2024-02-04T03:22:21;100453.38;;;3.36;74.34
77706;BME280;66874;45.274;5.880;2024-02-04T03:24:47;100459.44;;;3.36;74.53
77706;BME280;66874;45.274;5.880;2024-02-04T03:27:13;100458.56;;;3.36;74.45
77706;BME280;66874;45.274;5.880;2024-02-04T03:29:38;100445.66;;;3.37;74.55
77706;BME280;66874;45.274;5.880;2024-02-04T03:32:04;100444.06;;;3.41;74.57
77706;BME280;66874;45.274;5.880;2024-02-04T03:34:29;100443.19;;;3.40;74.56
77706;BME280;66874;45.274;5.880;2024-02-04T03:36:55;100434.59;;;3.41;74.66
77706;BME280;66874;45.274;5.880;2024-02-04T03:39:20;100432.09;;;3.45;74.71
77706;BME280;66874;45.274;5.880;2024-02-04T03:41:45;100434.78;;;3.48;74.59
77706;BME280;66874;45.274;5.880;2024-02-04T03:44:11;100428.88;;;3.52;74.89
77706;BME280;66874;45.274;5.880;2024-02-04T03:46:36;100426.31;;;3.53;74.84
77706;BME280;66874;45.274;5.880;2024-02-04T03:49:06;100430.69;;;3.54;74.92
77706;BME280;66874;45.274;5.880;2024-02-04T03:51:31;100424.69;;;3.55;75.04
77706;BME280;66874;45.274;5.880;2024-02-04T03:53:56;100432.47;;;3.57;75.02
77706;BME280;66874;45.274;5.880;2024-02-04T03:56:22;100441.13;;;3.57;75.22
77706;BME280;66874;45.274;5.880;2024-02-04T03:58:47;100442.94;;;3.60;75.23
77706;BME280;66874;45.274;5.880;2024-02-04T04:01:13;100441.22;;;3.60;75.38
77706;BME280;66874;45.274;5.880;2024-02-04T04:03:42;100443.03;;;3.63;75.47
77706;BME280;66874;45.274;5.880;2024-02-04T04:06:08;100452.59;;;3.65;75.35
77706;BME280;66874;45.274;5.880;2024-02-04T04:08:34;100450.94;;;3.67;75.44
77706;BME280;66874;45.274;5.880;2024-02-04T04:10:59;100462.13;;;3.66;75.51
77706;BME280;66874;45.274;5.880;2024-02-04T04:13:25;100468.06;;;3.64;75.84
77706;BME280;66874;45.274;5.880;2024-02-04T04:15:51;100478.41;;;3.64;75.74
77706;BME280;66874;45.274;5.880;2024-02-04T04:18:16;100475.91;;;3.65;76.00
77706;BME280;66874;45.274;5.880;2024-02-04T04:20:41;100488.84;;;3.65;76.12
77706;BME280;66874;45.274;5.880;2024-02-04T04:23:07;100492.22;;;3.64;76.13
77706;BME280;66874;45.274;5.880;2024-02-04T04:25:33;100497.41;;;3.64;76.33
77706;BME280;66874;45.274;5.880;2024-02-04T04:27:58;100502.50;;;3.61;76.38
77706;BME280;66874;45.274;5.880;2024-02-04T04:30:24;100507.59;;;3.58;76.83
77706;BME280;66874;45.274;5.880;2024-02-04T04:32:49;100502.44;;;3.60;76.83
77706;BME280;66874;45.274;5.880;2024-02-04T04:35:15;100499.91;;;3.61;76.83
77706;BME280;66874;45.274;5.880;2024-02-04T04:37:40;100499.91;;;3.61;76.86
77706;BME280;66874;45.274;5.880;2024-02-04T04:40:06;100505.16;;;3.64;76.95
77706;BME280;66874;45.274;5.880;2024-02-04T04:42:32;100504.28;;;3.64;77.10
77706;BME280;66874;45.274;5.880;2024-02-04T04:44:58;100502.66;;;3.66;77.30
77706;BME280;66874;45.274;5.880;2024-02-04T04:47:23;100506.13;;;3.66;77.40
77706;BME280;66874;45.274;5.880;2024-02-04T04:49:48;100502.69;;;3.67;77.59
77706;BME280;66874;45.274;5.880;2024-02-04T04:52:14;100502.75;;;3.69;77.33
77706;BME280;66874;45.274;5.880;2024-02-04T04:54:39;100506.34;;;3.74;77.25
77706;BME280;66874;45.274;5.880;2024-02-04T04:57:05;100500.44;;;3.78;77.47
77706;BME280;66874;45.274;5.880;2024-02-04T04:59:31;100499.66;;;3.81;77.58
77706;BME280;66874;45.274;5.880;2024-02-04T05:01:56;100504.88;;;3.82;77.45
77706;BME280;66874;45.274;5.880;2024-02-04T05:04:21;100501.34;;;3.80;77.49
77706;BME280;66874;45.274;5.880;2024-02-04T05:06:51;100503.13;;;3.81;77.50
77706;BME280;66874;45.274;5.880;2024-02-04T05:09:16;100515.25;;;3.84;77.56
77706;BME280;66874;45.274;5.880;2024-02-04T05:11:41;100515.25;;;3.84;77.78
77706;BME280;66874;45.274;5.880;2024-02-04T05:14:07;100517.06;;;3.85;77.64
77706;BME280;66874;45.274;5.880;2024-02-04T05:16:33;100511.91;;;3.86;77.70
77706;BME280;66874;45.274;5.880;2024-02-04T05:18:58;100524.00;;;3.87;77.81
77706;BME280;66874;45.274;5.880;2024-02-04T05:21:23;100527.56;;;3.91;78.05
77706;BME280;66874;45.274;5.880;2024-02-04T05:23:49;100530.22;;;3.92;77.83
77706;BME280;66874;45.274;5.880;2024-02-04T05:26:17;100534.56;;;3.94;77.76
77706;BME280;66874;45.274;5.880;2024-02-04T05:28:43;100538.00;;;3.92;77.52
77706;BME280;66874;45.274;5.880;2024-02-04T05:31:08;100544.09;;;3.95;77.80
77706;BME280;66874;45.274;5.880;2024-02-04T05:33:34;100547.63;;;3.97;77.89
77706;BME280;66874;45.274;5.880;2024-02-04T05:35:59;100549.41;;;3.99;77.79
77706;BME280;66874;45.274;5.880;2024-02-04T05:38:24;100547.78;;;4.03;77.77
77706;BME280;66874;45.274;5.880;2024-02-04T05:40:50;100557.38;;;4.05;77.85
77706;BME280;66874;45.274;5.880;2024-02-04T05:43:15;100566.88;;;4.06;77.74
77706;BME280;66874;45.274;5.880;2024-02-04T05:45:41;100569.31;;;4.00;77.77
77706;BME280;66874;45.274;5.880;2024-02-04T05:48:07;100573.41;;;3.94;78.11
77706;BME280;66874;45.274;5.880;2024-02-04T05:50:33;100580.19;;;3.90;78.25
77706;BME280;66874;45.274;5.880;2024-02-04T05:52:58;100586.25;;;3.90;78.54
77706;BME280;66874;45.274;5.880;2024-02-04T05:55:24;100588.91;;;3.92;78.55
77706;BME280;66874;45.274;5.880;2024-02-04T05:57:49;100595.75;;;3.91;78.60
77706;BME280;66874;45.274;5.880;2024-02-04T06:00:15;100595.00;;;3.94;78.43
77706;BME280;66874;45.274;5.880;2024-02-04T06:02:40;100595.03;;;3.96;78.33
77706;BME280;66874;45.274;5.880;2024-02-04T06:05:08;100598.44;;;3.95;78.52
77706;BME280;66874;45.274;5.880;2024-02-04T06:07:34;100597.44;;;3.89;78.70
77706;BME280;66874;45.274;5.880;2024-02-04T06:09:59;100596.56;;;3.89;78.66
77706;BME280;66874;45.274;5.880;2024-02-04T06:12:25;100594.88;;;3.91;78.80
77706;BME280;66874;45.274;5.880;2024-02-04T06:14:51;100586.31;;;3.92;78.64
77706;BME280;66874;45.274;5.880;2024-02-04T06:17:16;100588.97;;;3.95;78.60
77706;BME280;66874;45.274;5.880;2024-02-04T06:19:42;100589.03;;;3.97;78.77
77706;BME280;66874;45.274;5.880;2024-02-04T06:22:07;100584.78;;;3.99;78.91
77706;BME280;66874;45.274;5.880;2024-02-04T06:24:32;100584.88;;;4.02;78.69
77706;BME280;66874;45.274;5.880;2024-02-04T06:26:58;100579.84;;;4.06;78.59
77706;BME280;66874;45.274;5.880;2024-02-04T06:29:23;100586.06;;;4.11;78.64
77706;BME280;66874;45.274;5.880;2024-02-04T06:31:48;100581.75;;;4.12;78.54
77706;BME280;66874;45.274;5.880;2024-02-04T06:34:14;100582.72;;;4.15;78.54
77706;BME280;66874;45.274;5.880;2024-02-04T06:36:43;100581.94;;;4.18;78.56
77706;BME280;66874;45.274;5.880;2024-02-04T06:39:09;100579.41;;;4.20;78.54
77706;BME280;66874;45.274;5.880;2024-02-04T06:41:35;100575.97;;;4.21;78.79
77706;BME280;66874;45.274;5.880;2024-02-04T06:44:02;100563.94;;;4.23;78.47
77706;BME280;66874;45.274;5.880;2024-02-04T06:46:28;100580.38;;;4.23;78.66
77706;BME280;66874;45.274;5.880;2024-02-04T06:48:53;100569.94;;;4.22;78.72
77706;BME280;66874;45.274;5.880;2024-02-04T06:51:19;100570.88;;;4.24;78.62
77706;BME280;66874;45.274;5.880;2024-02-04T06:53:45;100575.25;;;4.26;78.63
77706;BME280;66874;45.274;5.880;2024-02-04T06:56:10;100568.41;;;4.27;78.52
77706;BME280;66874;45.274;5.880;2024-02-04T06:58:43;100569.31;;;4.29;78.51
77706;BME280;66874;45.274;5.880;2024-02-04T07:01:09;100567.59;;;4.29;78.78
77706;BME280;66874;45.274;5.880;2024-02-04T07:03:34;100568.41;;;4.27;78.75
77706;BME280;66874;45.274;5.880;2024-02-04T07:06:00;100569.22;;;4.26;78.80
77706;BME280;66874;45.274;5.880;2024-02-04T07:08:26;100571.66;;;4.21;79.00
77706;BME280;66874;45.274;5.880;2024-02-04T07:10:51;100566.88;;;4.06;79.16
77706;BME280;66874;45.274;5.880;2024-02-04T07:13:17;100565.53;;;3.90;79.48
77706;BME280;66874;45.274;5.880;2024-02-04T07:15:42;100566.06;;;3.80;79.94
77706;BME280;66874;45.274;5.880;2024-02-04T07:18:08;100559.84;;;3.74;80.05
77706;BME280;66874;45.274;5.880;2024-02-04T07:20:33;100561.53;;;3.73;79.76
77706;BME280;66874;45.274;5.880;2024-02-04T07:22:59;100554.66;;;3.74;79.96
77706;BME280;66874;45.274;5.880;2024-02-04T07:25:24;100556.50;;;3.78;80.03
77706;BME280;66874;45.274;5.880;2024-02-04T07:27:49;100554.91;;;3.81;79.82
77706;BME280;66874;45.274;5.880;2024-02-04T07:30:15;100555.06;;;3.87;79.86
77706;BME280;66874;45.274;5.880;2024-02-04T07:32:40;100554.34;;;3.91;79.68
77706;BME280;66874;45.274;5.880;2024-02-04T07:35:06;100556.03;;;3.89;79.74
77706;BME280;66874;45.274;5.880;2024-02-04T07:37:34;100544.44;;;3.78;80.24
77706;BME280;66874;45.274;5.880;2024-02-04T07:39:59;100539.75;;;3.66;80.45
77706;BME280;66874;45.274;5.880;2024-02-04T07:42:25;100540.50;;;3.62;80.57
77706;BME280;66874;45.274;5.880;2024-02-04T07:44:50;100545.59;;;3.61;81.01
77706;BME280;66874;45.274;5.880;2024-02-04T07:47:16;100536.44;;;3.71;80.97
77706;BME280;66874;45.274;5.880;2024-02-04T07:49:41;100541.88;;;3.80;80.94
77706;BME280;66874;45.274;5.880;2024-02-04T07:52:07;100539.47;;;3.84;80.74
77706;BME280;66874;45.274;5.880;2024-02-04T07:54:32;100535.25;;;3.88;80.40
77706;BME280;66874;45.274;5.880;2024-02-04T07:56:59;100537.13;;;3.92;80.46
77706;BME280;66874;45.274;5.880;2024-02-04T07:59:24;100549.16;;;3.91;80.51
77706;BME280;66874;45.274;5.880;2024-02-04T08:01:49;100543.91;;;3.88;80.52
77706;BME280;66874;45.274;5.880;2024-02-04T08:04:15;100546.41;;;3.85;80.69
77706;BME280;66874;45.274;5.880;2024-02-04T08:06:40;100561.81;;;3.82;80.68
77706;BME280;66874;45.274;5.880;2024-02-04T08:09:06;100563.41;;;3.77;81.10
77706;BME280;66874;45.274;5.880;2024-02-04T08:11:31;100560.63;;;3.73;81.20
77706;BME280;66874;45.274;5.880;2024-02-04T08:13:57;100562.44;;;3.75;80.94
77706;BME280;66874;45.274;5.880;2024-02-04T08:16:22;100571.06;;;3.74;81.39
77706;BME280;66874;45.274;5.880;2024-02-04T08:18:48;100574.41;;;3.72;81.03
77706;BME280;66874;45.274;5.880;2024-02-04T08:21:13;100578.81;;;3.74;80.98
77706;BME280;66874;45.274;5.880;2024-02-04T08:23:39;100583.16;;;3.75;81.09
77706;BME280;66874;45.274;5.880;2024-02-04T08:26:07;100584.97;;;3.78;81.05
77706;BME280;66874;45.274;5.880;2024-02-04T08:28:32;100585.84;;;3.78;81.26
77706;BME280;66874;45.274;5.880;2024-02-04T08:30:58;100591.06;;;3.80;81.17
77706;BME280;66874;45.274;5.880;2024-02-04T08:33:23;100594.53;;;3.80;81.18
77706;BME280;66874;45.274;5.880;2024-02-04T08:35:49;100597.22;;;3.83;81.06
77706;BME280;66874;45.274;5.880;2024-02-04T08:38:14;100599.09;;;3.87;81.05
77706;BME280;66874;45.274;5.880;2024-02-04T08:40:40;100596.59;;;3.90;80.81
77706;BME280;66874;45.274;5.880;2024-02-04T08:43:05;100595.81;;;3.93;81.02
77706;BME280;66874;45.274;5.880;2024-02-04T08:45:31;100596.09;;;4.02;80.91
77706;BME280;66874;45.274;5.880;2024-02-04T08:47:56;100598.91;;;4.08;80.90
77706;BME280;66874;45.274;5.880;2024-02-04T08:50:21;100595.47;;;4.09;80.74
77706;BME280;66874;45.274;5.880;2024-02-04T08:52:47;100601.59;;;4.11;80.74
77706;BME280;66874;45.274;5.880;2024-02-04T08:55:12;100597.13;;;4.07;80.90
77706;BME280;66874;45.274;5.880;2024-02-04T08:57:38;100598.91;;;4.08;80.84
77706;BME280;66874;45.274;5.880;2024-02-04T09:00:04;100592.13;;;4.12;81.00
77706;BME280;66874;45.274;5.880;2024-02-04T09:02:30;100589.47;;;4.10;80.86
77706;BME280;66874;45.274;5.880;2024-02-04T09:04:55;100592.78;;;4.06;81.11
77706;BME280;66874;45.274;5.880;2024-02-04T09:07:20;100594.47;;;4.04;81.02
77706;BME280;66874;45.274;5.880;2024-02-04T09:09:46;100593.41;;;3.99;81.14
77706;BME280;66874;45.274;5.880;2024-02-04T09:12:11;100592.50;;;3.97;81.53
77706;BME280;66874;45.274;5.880;2024-02-04T09:14:37;100589.59;;;3.88;81.52
77706;BME280;66874;45.274;5.880;2024-02-04T09:17:03;100581.69;;;3.83;81.79
77706;BME280;66874;45.274;5.880;2024-02-04T09:19:29;100581.59;;;3.80;81.93
77706;BME280;66874;45.274;5.880;2024-02-04T09:21:56;100587.50;;;3.76;82.76
77706;BME280;66874;45.274;5.880;2024-02-04T09:24:21;100578.81;;;3.74;82.51
77706;BME280;66874;45.274;5.880;2024-02-04T09:26:47;100585.75;;;3.75;82.98
77706;BME280;66874;45.274;5.880;2024-02-04T09:29:12;100580.44;;;3.71;83.26
77706;BME280;66874;45.274;5.880;2024-02-04T09:31:38;100576.13;;;3.71;82.94
77706;BME280;66874;45.274;5.880;2024-02-04T09:34:03;100574.56;;;3.76;82.83
77706;BME280;66874;45.274;5.880;2024-02-04T09:36:29;100577.94;;;3.74;83.15
77706;BME280;66874;45.274;5.880;2024-02-04T09:38:54;100582.25;;;3.73;83.07
77706;BME280;66874;45.274;5.880;2024-02-04T09:41:21;100586.59;;;3.74;83.02
77706;BME280;66874;45.274;5.880;2024-02-04T09:43:49;100590.16;;;3.78;83.07
77706;BME280;66874;45.274;5.880;2024-02-04T09:46:16;100597.13;;;3.80;82.70
77706;BME280;66874;45.274;5.880;2024-02-04T09:48:44;100594.72;;;3.85;82.44
77706;BME280;66874;45.274;5.880;2024-02-04T09:51:11;100599.97;;;3.88;82.36
77706;BME280;66874;45.274;5.880;2024-02-04T09:53:43;100594.00;;;3.90;82.26
77706;BME280;66874;45.274;5.880;2024-02-04T09:56:09;100608.81;;;3.95;82.28
77706;BME280;66874;45.274;5.880;2024-02-04T09:58:36;100608.19;;;4.02;81.96
77706;BME280;66874;45.274;5.880;2024-02-04T10:01:04;100608.22;;;4.03;81.99
77706;BME280;66874;45.274;5.880;2024-02-04T10:03:29;100597.94;;;4.05;81.87
77706;BME280;66874;45.274;5.880;2024-02-04T10:05:55;100603.13;;;4.06;81.87
77706;BME280;66874;45.274;5.880;2024-02-04T10:08:21;100601.44;;;4.07;82.10
77706;BME280;66874;45.274;5.880;2024-02-04T10:10:47;100597.09;;;4.06;81.97
77706;BME280;66874;45.274;5.880;2024-02-04T10:13:12;100597.09;;;4.06;81.93
77706;BME280;66874;45.274;5.880;2024-02-04T10:15:38;100599.69;;;4.06;82.06
77706;BME280;66874;45.274;5.880;2024-02-04T10:18:04;100604.13;;;4.10;82.17
77706;BME280;66874;45.274;5.880;2024-02-04T10:20:30;100602.50;;;4.13;81.84
77706;BME280;66874;45.274;5.880;2024-02-04T10:22:56;100603.44;;;4.15;81.75
77706;BME280;66874;45.274;5.880;2024-02-04T10:25:21;100590.63;;;4.20;81.70
77706;BME280;66874;45.274;5.880;2024-02-04T10:27:47;100589.91;;;4.24;81.67
77706;BME280;66874;45.274;5.880;2024-02-04T10:30:13;100590.81;;;4.26;81.71
77706;BME280;66874;45.274;5.880;2024-02-04T10:32:39;100593.50;;;4.29;81.57
77706;BME280;66874;45.274;5.880;2024-02-04T10:35:05;100588.28;;;4.28;81.77
77706;BME280;66874;45.274;5.880;2024-02-04T10:37:30;100591.78;;;4.30;81.58
77706;BME280;66874;45.274;5.880;2024-02-04T10:39:55;100592.75;;;4.33;81.35
77706;BME280;66874;45.274;5.880;2024-02-04T10:42:24;100588.44;;;4.34;81.61
77706;BME280;66874;45.274;5.880;2024-02-04T10:44:52;100578.09;;;4.34;81.42
77706;BME280;66874;45.274;5.880;2024-02-04T10:47:23;100579.78;;;4.32;81.50
77706;BME280;66874;45.274;5.880;2024-02-04T10:49:52;100578.91;;;4.31;81.38
77706;BME280;66874;45.274;5.880;2024-02-04T10:52:22;100583.13;;;4.29;81.60
77706;BME280;66874;45.274;5.880;2024-02-04T10:54:51;100577.22;;;4.33;81.66
77706;BME280;66874;45.274;5.880;2024-02-04T10:57:20;100581.66;;;4.37;81.54
77706;BME280;66874;45.274;5.880;2024-02-04T10:59:47;100579.16;;;4.40;81.30
77706;BME280;66874;45.274;5.880;2024-02-04T11:02:15;100582.75;;;4.46;81.08
77706;BME280;66874;45.274;5.880;2024-02-04T11:04:42;100576.88;;;4.51;81.15
77706;BME280;66874;45.274;5.880;2024-02-04T11:07:09;100582.19;;;4.56;81.03
77706;BME280;66874;45.274;5.880;2024-02-04T11:09:36;100581.34;;;4.57;81.11
77706;BME280;66874;45.274;5.880;2024-02-04T11:12:04;100575.44;;;4.61;80.93
77706;BME280;66874;45.274;5.880;2024-02-04T11:14:33;100570.41;;;4.65;80.90
77706;BME280;66874;45.274;5.880;2024-02-04T11:25:56;100548.16;;;4.74;80.43
77706;BME280;66874;45.274;5.880;2024-02-04T11:28:22;100543.78;;;4.73;80.63
77706;BME280;66874;45.274;5.880;2024-02-04T11:30:48;100539.44;;;4.72;80.38
77706;BME280;66874;45.274;5.880;2024-02-04T11:33:18;100536.97;;;4.76;80.16
77706;BME280;66874;45.274;5.880;2024-02-04T11:35:44;100532.75;;;4.80;80.07
77706;BME280;66874;45.274;5.880;2024-02-04T11:38:10;100541.56;;;4.85;79.96
77706;BME280;66874;45.274;5.880;2024-02-04T11:40:40;100527.13;;;4.95;79.92
77706;BME280;66874;45.274;5.880;2024-02-04T11:43:14;100526.56;;;5.06;79.85
77706;BME280;66874;45.274;5.880;2024-02-04T11:45:43;100528.59;;;5.18;79.70
77706;BME280;66874;45.274;5.880;2024-02-04T11:48:10;100523.63;;;5.26;79.40
77706;BME280;66874;45.274;5.880;2024-02-04T11:50:37;100521.09;;;5.29;79.51
77706;BME280;66874;45.274;5.880;2024-02-04T11:53:08;100515.94;;;5.30;79.23
77706;BME280;66874;45.274;5.880;2024-02-04T11:55:35;100513.44;;;5.33;79.19
77706;BME280;66874;45.274;5.880;2024-02-04T11:58:05;100516.09;;;5.35;79.23
77706;BME280;66874;45.274;5.880;2024-02-04T12:00:34;100517.91;;;5.39;79.22
77706;BME280;66874;45.274;5.880;2024-02-04T12:03:04;100511.03;;;5.41;78.80
77706;BME280;66874;45.274;5.880;2024-02-04T12:05:31;100507.25;;;5.28;78.67
77706;BME280;66874;45.274;5.880;2024-02-04T12:08:00;100505.25;;;5.18;78.91
77706;BME280;66874;45.274;5.880;2024-02-04T12:10:26;100514.53;;;5.08;79.32
77706;BME280;66874;45.274;5.880;2024-02-04T12:12:52;100505.78;;;5.05;79.37
77706;BME280;66874;45.274;5.880;2024-02-04T12:15:17;100507.53;;;5.06;79.35
77706;BME280;66874;45.274;5.880;2024-02-04T12:17:43;100513.81;;;5.14;79.28
77706;BME280;66874;45.274;5.880;2024-02-04T12:20:09;100504.56;;;5.24;79.02
77706;BME280;66874;45.274;5.880;2024-02-04T12:22:35;100508.22;;;5.32;79.06
77706;BME280;66874;45.274;5.880;2024-02-04T12:25:02;100514.47;;;5.40;78.62
77706;BME280;66874;45.274;5.880;2024-02-04T12:27:28;100507.53;;;5.39;78.80
77706;BME280;66874;45.274;5.880;2024-02-04T12:29:54;100503.25;;;5.41;78.62
77706;BME280;66874;45.274;5.880;2024-02-04T12:32:19;100498.81;;;5.37;78.58
77706;BME280;66874;45.274;5.880;2024-02-04T12:34:48;100503.03;;;5.32;78.62
77706;BME280;66874;45.274;5.880;2024-02-04T12:37:14;100503.81;;;5.29;78.87
77706;BME280;66874;45.274;5.880;2024-02-04T12:39:39;100497.84;;;5.33;78.67
77706;BME280;66874;45.274;5.880;2024-02-04T12:42:05;100490.16;;;5.36;78.86
77706;BME280;66874;45.274;5.880;2024-02-04T12:44:31;100488.41;;;5.35;78.69
77706;BME280;66874;45.274;5.880;2024-02-04T12:46:57;100483.13;;;5.32;78.76
77706;BME280;66874;45.274;5.880;2024-02-04T12:49:22;100486.50;;;5.28;78.79
77706;BME280;66874;45.274;5.880;2024-02-04T12:51:48;100483.03;;;5.28;78.89
77706;BME280;66874;45.274;5.880;2024-02-04T12:54:14;100478.81;;;5.33;78.71
77706;BME280;66874;45.274;5.880;2024-02-04T13:01:54;100470.31;;;5.38;78.50
77706;BME280;66874;45.274;5.880;2024-02-04T13:04:21;100477.94;;;5.32;78.37
77706;BME280;66874;45.274;5.880;2024-02-04T13:06:47;100466.72;;;5.33;78.48
77706;BME280;66874;45.274;5.880;2024-02-04T13:09:15;100472.69;;;5.29;78.49